createdAt,value
2018-07-09T00:00:44.548Z,7.28
2018-07-09T00:03:12.797Z,6.70
2018-07-09T00:05:41.093Z,4.94
2018-07-09T00:08:09.382Z,5.18
2018-07-09T00:10:37.670Z,8.32
2018-07-09T00:13:05.925Z,5.38
2018-07-09T00:15:34.212Z,4.98
2018-07-09T00:18:03.312Z,8.36
2018-07-09T00:20:31.581Z,6.00
2018-07-09T00:22:59.856Z,8.34
2018-07-09T00:25:28.125Z,6.08
2018-07-09T00:27:56.408Z,6.92
2018-07-09T00:30:24.657Z,8.84
2018-07-09T00:32:53.030Z,6.66
2018-07-09T00:35:21.319Z,5.70
2018-07-09T00:37:49.619Z,6.32
2018-07-09T00:40:17.927Z,6.30
2018-07-09T00:42:46.232Z,8.58
2018-07-09T00:45:13.763Z,13.62
2018-07-09T00:47:42.058Z,11.32
2018-07-09T00:50:10.312Z,10.84
2018-07-09T00:52:38.631Z,9.24
2018-07-09T00:55:06.133Z,11.06
2018-07-09T00:57:34.416Z,10.98
2018-07-09T01:00:03.627Z,8.04
2018-07-09T01:02:32.625Z,7.64
2018-07-09T01:05:00.931Z,8.04
2018-07-09T01:07:29.215Z,6.24
2018-07-09T01:09:57.501Z,7.80
2018-07-09T01:12:25.778Z,7.78
2018-07-09T01:14:55.030Z,7.64
2018-07-09T01:17:23.850Z,8.50
2018-07-09T01:19:52.128Z,8.34
2018-07-09T01:22:19.653Z,8.38
2018-07-09T01:24:47.944Z,6.00
2018-07-09T01:27:16.192Z,9.88
2018-07-09T01:29:44.519Z,6.02
2018-07-09T01:32:12.817Z,7.98
2018-07-09T01:34:41.124Z,5.92
2018-07-09T01:37:09.412Z,6.86
2018-07-09T01:39:37.667Z,9.06
2018-07-09T01:42:05.953Z,6.76
2018-07-09T01:44:34.233Z,7.08
2018-07-09T01:47:03.555Z,7.18
2018-07-09T01:49:32.664Z,8.34
2018-07-09T01:52:00.925Z,7.20
2018-07-09T01:54:29.200Z,8.50
2018-07-09T01:59:51.201Z,9.02
2018-07-09T02:08:06.434Z,8.30
2018-07-09T02:10:34.695Z,7.34
2018-07-09T02:13:02.976Z,6.76
2018-07-09T02:15:31.244Z,7.50
2018-07-09T02:18:18.640Z,10.28
2018-07-09T02:20:46.901Z,12.10
2018-07-09T02:23:15.152Z,9.36
2018-07-09T02:28:36.012Z,6.40
2018-07-09T02:31:04.290Z,7.50
2018-07-09T02:33:34.099Z,8.26
2018-07-09T02:36:23.193Z,10.68
2018-07-09T02:38:51.463Z,7.38
2018-07-09T02:41:19.740Z,8.12
2018-07-09T02:43:47.991Z,7.14
2018-07-09T02:46:18.269Z,14.18
2018-07-09T02:48:46.540Z,9.92
2018-07-09T02:51:17.499Z,12.86
2018-07-09T02:53:45.804Z,10.34
2018-07-09T02:59:07.048Z,12.62
2018-07-09T03:01:35.304Z,13.44
2018-07-09T03:04:16.357Z,8.30
2018-07-09T03:06:44.647Z,8.46
2018-07-09T03:09:12.969Z,7.90
2018-07-09T03:11:41.236Z,8.50
2018-07-09T03:17:24.000Z,9.24
2018-07-09T03:19:52.298Z,9.14
2018-07-09T03:22:20.590Z,8.08
2018-07-09T03:30:35.752Z,15.78
2018-07-09T03:33:04.055Z,8.46
2018-07-09T03:35:32.900Z,8.74
2018-07-09T03:38:01.176Z,10.70
2018-07-09T03:46:15.317Z,12.08
2018-07-09T03:51:37.067Z,11.42
2018-07-09T04:02:44.542Z,12.66
2018-07-09T04:05:12.797Z,13.66
2018-07-09T04:07:41.092Z,8.96
2018-07-09T04:10:09.374Z,17.36
2018-07-09T04:12:37.680Z,11.12
2018-07-09T04:15:05.974Z,13.22
2018-07-09T04:17:34.257Z,11.02
2018-07-09T04:20:03.161Z,11.22
2018-07-09T04:22:31.422Z,10.60
2018-07-09T04:24:59.747Z,11.52
2018-07-09T04:27:28.013Z,11.00
2018-07-09T04:29:56.763Z,10.74
2018-07-09T04:32:25.065Z,17.38
2018-07-09T04:34:53.228Z,13.22
2018-07-09T04:37:21.555Z,11.46
2018-07-09T04:39:49.864Z,11.50
2018-07-09T04:42:18.124Z,11.22
2018-07-09T04:44:46.409Z,10.08
2018-07-09T04:47:13.933Z,14.00
2018-07-09T04:49:42.181Z,11.62
2018-07-09T04:52:10.476Z,14.32
2018-07-09T04:54:37.964Z,12.56
2018-07-09T04:57:06.261Z,10.48
2018-07-09T04:59:34.582Z,11.98
2018-07-09T05:02:02.895Z,10.50
2018-07-09T05:04:31.192Z,11.12
2018-07-09T05:06:59.488Z,12.78
2018-07-09T05:09:27.824Z,14.58
2018-07-09T05:11:56.093Z,13.94
2018-07-09T05:14:25.660Z,12.52
2018-07-09T05:16:55.301Z,16.20
2018-07-09T05:19:23.586Z,13.22
2018-07-09T05:21:51.859Z,14.46
2018-07-09T05:24:20.145Z,12.58
2018-07-09T05:26:48.393Z,10.90
2018-07-09T05:29:16.709Z,16.34
2018-07-09T05:31:45.001Z,14.64
2018-07-09T05:34:13.296Z,17.14
2018-07-09T05:36:41.606Z,13.36
2018-07-09T05:39:09.864Z,19.20
2018-07-09T05:41:38.191Z,11.80
2018-07-09T05:44:06.448Z,17.46
2018-07-09T05:46:34.757Z,14.38
2018-07-09T05:49:03.016Z,15.68
2018-07-09T05:51:31.330Z,21.52
2018-07-09T05:53:59.596Z,11.36
2018-07-09T05:56:27.880Z,14.16
2018-07-09T05:58:56.148Z,17.38
2018-07-09T06:01:25.042Z,18.26
2018-07-09T06:03:54.033Z,14.78
2018-07-09T06:06:22.318Z,18.04
2018-07-09T06:08:50.571Z,16.74
2018-07-09T06:11:18.861Z,17.78
2018-07-09T06:13:47.148Z,18.44
2018-07-09T06:16:15.449Z,13.38
2018-07-09T06:18:42.952Z,15.32
2018-07-09T06:21:11.228Z,14.88
2018-07-09T06:23:39.521Z,15.58
2018-07-09T06:26:07.821Z,15.74
2018-07-09T06:28:36.123Z,19.92
2018-07-09T06:31:04.419Z,17.58
2018-07-09T06:33:33.274Z,19.82
2018-07-09T06:36:01.543Z,15.62
2018-07-09T06:38:29.890Z,12.10
2018-07-09T06:40:58.452Z,15.80
2018-07-09T06:43:26.712Z,14.22
2018-07-09T06:45:55.078Z,15.16
2018-07-09T06:48:24.908Z,10.56
2018-07-09T06:50:53.946Z,11.78
2018-07-09T06:53:22.218Z,12.98
2018-07-09T06:55:50.550Z,12.14
2018-07-09T06:58:18.775Z,9.82
2018-07-09T07:00:47.073Z,10.02
2018-07-09T07:03:14.564Z,8.90
2018-07-09T07:05:42.848Z,8.44
2018-07-09T07:08:11.119Z,28.96
2018-07-09T07:10:39.453Z,9.76
2018-07-09T07:13:07.723Z,9.28
2018-07-09T07:15:36.028Z,8.56
2018-07-09T07:18:04.280Z,12.92
2018-07-09T07:20:33.202Z,12.32
2018-07-09T07:23:01.526Z,14.36
2018-07-09T07:25:29.838Z,8.68
2018-07-09T07:27:58.123Z,9.54
2018-07-09T07:30:26.389Z,8.26
2018-07-09T07:32:54.746Z,20.06
2018-07-09T07:35:24.211Z,8.20
2018-07-09T07:37:54.607Z,11.68
2018-07-09T07:40:23.902Z,10.68
2018-07-09T07:42:52.183Z,8.96
2018-07-09T07:45:20.506Z,8.86
2018-07-09T07:47:49.742Z,7.36
2018-07-09T07:50:18.102Z,8.98
2018-07-09T07:52:45.545Z,9.08
2018-07-09T07:55:13.871Z,10.22
2018-07-09T07:57:42.123Z,9.20
2018-07-09T08:00:10.468Z,8.48
2018-07-09T08:02:38.776Z,10.22
2018-07-09T08:05:07.072Z,8.20
2018-07-09T08:07:35.327Z,8.50
2018-07-09T08:10:04.312Z,9.48
2018-07-09T08:13:13.742Z,10.36
2018-07-09T08:15:00.720Z,10.30
2018-07-09T08:17:29.010Z,11.40
2018-07-09T08:19:57.307Z,8.38
2018-07-09T08:22:25.620Z,7.78
2018-07-09T08:24:54.537Z,13.52
2018-07-09T08:27:23.198Z,8.02
2018-07-09T08:29:51.527Z,9.60
2018-07-09T08:32:19.817Z,15.14
2018-07-09T08:34:48.083Z,11.28
2018-07-09T08:37:16.409Z,8.76
2018-07-09T08:39:44.679Z,9.64
2018-07-09T08:42:12.966Z,12.10
2018-07-09T08:44:41.269Z,6.88
2018-07-09T08:47:08.761Z,8.04
2018-07-09T08:49:37.067Z,12.18
2018-07-09T08:52:05.342Z,9.12
2018-07-09T08:54:34.349Z,9.94
2018-07-09T08:57:03.404Z,9.24
2018-07-09T08:59:32.653Z,8.02
2018-07-09T09:02:00.969Z,7.96
2018-07-09T09:04:29.231Z,10.10
2018-07-09T09:06:57.520Z,6.98
2018-07-09T09:09:25.769Z,8.86
2018-07-09T09:11:55.185Z,6.12
2018-07-09T09:14:24.484Z,8.72
2018-07-09T09:16:53.216Z,11.58
2018-07-09T09:19:21.593Z,7.64
2018-07-09T09:21:49.896Z,9.00
2018-07-09T09:24:18.160Z,10.50
2018-07-09T09:26:46.419Z,8.92
2018-07-09T09:29:14.708Z,7.32
2018-07-09T09:31:42.964Z,13.10
2018-07-09T09:34:11.240Z,4.84
2018-07-09T09:36:39.546Z,9.12
2018-07-09T09:39:07.088Z,8.18
2018-07-09T09:41:45.191Z,5.66
2018-07-09T09:44:13.503Z,6.12
2018-07-09T09:46:41.864Z,7.46
2018-07-09T09:49:10.170Z,10.56
2018-07-09T09:51:38.468Z,12.92
2018-07-09T09:54:16.959Z,7.92
2018-07-09T09:56:45.295Z,4.88
2018-07-09T09:59:13.553Z,5.28
2018-07-09T10:01:41.877Z,11.08
2018-07-09T10:04:10.099Z,5.10
2018-07-09T10:06:38.425Z,7.32
2018-07-09T10:09:07.669Z,9.44
2018-07-09T10:11:35.958Z,4.48
2018-07-09T10:14:04.242Z,7.64
2018-07-09T10:16:33.422Z,3.94
2018-07-09T10:19:01.686Z,7.14
2018-07-09T10:21:30.008Z,6.30
2018-07-09T10:23:58.325Z,4.58
2018-07-09T10:26:26.589Z,5.50
2018-07-09T10:28:58.183Z,7.44
2018-07-09T10:31:26.467Z,6.76
2018-07-09T10:33:55.727Z,4.66
2018-07-09T10:36:25.012Z,10.56
2018-07-09T10:38:54.014Z,7.10
2018-07-09T10:41:22.363Z,5.40
2018-07-09T10:43:50.735Z,6.24
2018-07-09T10:46:18.991Z,5.12
2018-07-09T10:48:47.273Z,5.04
2018-07-09T10:51:15.560Z,4.04
2018-07-09T10:53:49.863Z,4.70
2018-07-09T10:56:18.194Z,4.04
2018-07-09T10:58:47.530Z,7.94
2018-07-09T11:01:15.781Z,7.14
2018-07-09T11:03:47.522Z,5.62
2018-07-09T11:06:15.031Z,6.12
2018-07-09T11:08:59.925Z,6.22
2018-07-09T11:11:28.191Z,6.12
2018-07-09T11:13:56.690Z,6.48
2018-07-09T11:16:24.983Z,6.42
2018-07-09T11:18:53.319Z,5.00
2018-07-09T11:21:25.156Z,5.24
2018-07-09T11:23:54.214Z,9.16
2018-07-09T11:26:21.781Z,6.66
2018-07-09T11:28:50.064Z,6.64
2018-07-09T11:31:19.292Z,4.96
2018-07-09T11:33:47.597Z,4.90
2018-07-09T11:36:37.121Z,8.28
2018-07-09T11:39:05.456Z,7.32
2018-07-09T11:41:36.376Z,5.56
2018-07-09T11:44:04.673Z,10.32
2018-07-09T11:46:32.930Z,6.16
2018-07-09T11:49:11.432Z,6.84
2018-07-09T11:51:39.718Z,7.62
2018-07-09T11:54:07.995Z,4.98
2018-07-09T11:56:36.325Z,8.18
2018-07-09T11:59:09.870Z,7.00
2018-07-09T12:01:38.204Z,15.26
2018-07-09T12:04:06.472Z,6.74
2018-07-09T12:06:34.769Z,4.78
2018-07-09T12:09:04.044Z,5.08
2018-07-09T12:11:33.412Z,6.62
2018-07-09T12:14:08.521Z,7.54
2018-07-09T12:16:36.832Z,7.76
2018-07-09T12:19:05.128Z,8.68
2018-07-09T12:21:34.765Z,6.90
2018-07-09T12:24:02.955Z,5.28
2018-07-09T12:26:31.272Z,5.32
2018-07-09T12:28:59.616Z,7.00
2018-07-09T12:31:28.070Z,8.06
2018-07-09T12:33:56.352Z,8.24
2018-07-09T12:36:25.921Z,7.38
2018-07-09T12:38:55.488Z,5.56
2018-07-09T12:41:23.770Z,5.50
2018-07-09T12:43:52.037Z,5.94
2018-07-09T12:46:20.336Z,5.28
2018-07-09T12:48:48.583Z,8.70
2018-07-09T12:51:16.906Z,7.44
2018-07-09T12:53:45.173Z,6.98
2018-07-09T12:56:13.457Z,6.82
2018-07-09T12:58:41.714Z,4.24
2018-07-09T13:01:09.993Z,7.14
2018-07-09T13:06:31.666Z,5.20
2018-07-09T13:09:00.005Z,4.10
2018-07-09T13:11:28.319Z,9.44
2018-07-09T13:13:56.575Z,5.94
2018-07-09T13:16:27.885Z,4.20
2018-07-09T13:18:56.241Z,6.52
2018-07-09T13:21:25.755Z,6.42
2018-07-09T13:23:55.279Z,6.52
2018-07-09T13:26:24.587Z,5.00
2018-07-09T13:39:27.883Z,3.32
2018-07-09T13:44:48.752Z,2.58
2018-07-09T13:47:17.039Z,9.40
2018-07-09T13:49:45.297Z,5.48
2018-07-09T13:52:37.253Z,2.90
2018-07-09T13:55:05.608Z,5.36
2018-07-09T14:00:27.648Z,8.16
2018-07-09T14:14:39.467Z,3.84
2018-07-09T14:17:07.724Z,3.02
2018-07-09T14:19:36.012Z,3.32
2018-07-09T14:27:50.971Z,3.00
2018-07-09T14:30:19.267Z,3.16
2018-07-09T14:35:40.305Z,3.20
2018-07-09T14:38:23.352Z,6.20
2018-07-09T14:40:55.049Z,3.30
2018-07-09T14:46:16.160Z,4.88
2018-07-09T14:48:44.490Z,7.10
2018-07-09T14:51:25.444Z,5.70
2018-07-09T15:05:27.163Z,4.26
2018-07-09T15:19:35.211Z,3.34
2018-07-09T15:22:04.270Z,3.82
2018-07-09T15:24:34.396Z,3.96
2018-07-09T15:27:03.744Z,4.62
2018-07-09T15:29:32.018Z,3.74
2018-07-09T15:34:53.329Z,7.56
2018-07-09T15:37:21.615Z,4.48
2018-07-09T15:39:49.896Z,5.96
2018-07-09T15:42:30.947Z,3.44
2018-07-09T15:44:59.214Z,3.52
2018-07-09T15:47:27.498Z,4.52
2018-07-09T15:49:55.790Z,3.30
2018-07-09T15:55:17.430Z,3.78
2018-07-09T15:57:45.684Z,4.56
2018-07-09T16:00:13.978Z,4.42
2018-07-09T16:02:54.812Z,5.98
2018-07-09T16:05:23.709Z,4.12
2018-07-09T16:07:52.008Z,5.86
2018-07-09T16:13:13.424Z,4.78
2018-07-09T16:15:41.708Z,4.86
2018-07-09T16:18:10.000Z,3.60
2018-07-09T16:20:38.248Z,4.78
2018-07-09T16:25:59.377Z,3.88
2018-07-09T16:31:21.154Z,4.62
2018-07-09T16:33:49.408Z,4.36
2018-07-09T16:36:17.707Z,5.22
2018-07-09T16:38:46.008Z,6.12
2018-07-09T16:41:33.314Z,4.24
2018-07-09T16:44:03.743Z,4.50
2018-07-09T16:46:32.025Z,5.10
2018-07-09T16:49:00.342Z,4.84
2018-07-09T16:54:22.572Z,7.70
2018-07-09T16:59:44.407Z,4.22
2018-07-09T17:05:05.569Z,4.26
2018-07-09T17:07:34.362Z,4.94
2018-07-09T17:10:03.917Z,6.62
2018-07-09T17:15:25.863Z,6.26
2018-07-09T17:17:54.668Z,4.72
2018-07-09T17:20:25.324Z,5.98
2018-07-09T17:22:55.236Z,4.26
2018-07-09T17:25:25.000Z,5.58
2018-07-09T17:27:54.317Z,4.00
2018-07-09T17:39:09.221Z,6.72
2018-07-09T17:41:37.560Z,6.44
2018-07-09T17:52:45.980Z,5.24
2018-07-09T17:55:14.261Z,5.10
2018-07-09T17:57:43.832Z,4.98
2018-07-09T18:00:12.131Z,4.62
2018-07-09T18:02:40.385Z,4.64
2018-07-09T18:05:08.645Z,4.36
2018-07-09T18:07:36.168Z,5.28
2018-07-09T18:12:56.961Z,5.68
2018-07-09T18:15:25.296Z,5.40
2018-07-09T18:17:54.304Z,5.94
2018-07-09T18:23:16.775Z,6.16
2018-07-09T18:31:32.560Z,6.04
2018-07-09T18:34:00.870Z,5.50
2018-07-09T18:36:29.174Z,9.56
2018-07-09T18:38:57.461Z,6.60
2018-07-09T18:41:25.748Z,6.38
2018-07-09T18:43:54.024Z,6.88
2018-07-09T18:46:22.314Z,7.28
2018-07-09T18:51:43.712Z,6.20
2018-07-09T18:54:11.245Z,9.56
2018-07-09T18:56:39.541Z,5.44
2018-07-09T19:04:55.598Z,6.60
2018-07-09T19:07:23.945Z,13.74
2018-07-09T19:09:52.266Z,9.14
2018-07-09T19:12:24.310Z,5.32
2018-07-09T19:14:59.211Z,7.06
2018-07-09T19:17:27.472Z,6.20
2018-07-09T19:19:55.760Z,10.10
2018-07-09T19:25:16.643Z,6.48
2018-07-09T19:27:44.539Z,6.98
2018-07-09T19:30:12.371Z,6.06
2018-07-09T19:35:35.918Z,7.78
2018-07-09T19:38:02.999Z,5.96
2018-07-09T19:43:23.466Z,9.94
2018-07-09T19:45:50.598Z,8.84
2018-07-09T19:48:18.289Z,5.48
2018-07-09T19:50:46.162Z,5.02
2018-07-09T19:53:13.943Z,5.22
2018-07-09T19:55:40.984Z,7.62
2018-07-09T19:58:08.784Z,5.30
2018-07-09T20:00:37.562Z,5.80
2018-07-09T20:03:05.390Z,4.74
2018-07-09T20:05:33.869Z,4.78
2018-07-09T20:08:02.900Z,5.56
2018-07-09T20:10:46.457Z,7.16
2018-07-09T20:13:14.263Z,6.26
2018-07-09T20:15:57.077Z,11.24
2018-07-09T20:18:24.854Z,7.26
2018-07-09T20:20:52.626Z,5.70
2018-07-09T20:23:20.448Z,6.26
2018-07-09T20:25:48.220Z,6.00
2018-07-09T20:28:16.000Z,7.92
2018-07-09T20:30:43.810Z,4.12
2018-07-09T20:33:11.615Z,7.42
2018-07-09T20:35:38.632Z,6.56
2018-07-09T20:38:06.465Z,5.82
2018-07-09T20:40:34.327Z,6.58
2018-07-09T20:43:03.169Z,6.48
2018-07-09T20:45:45.824Z,7.76
2018-07-09T20:48:13.568Z,6.28
2018-07-09T20:53:35.260Z,7.34
2018-07-09T20:56:15.606Z,4.50
2018-07-09T20:58:43.420Z,4.44
2018-07-09T21:01:32.088Z,6.76
2018-07-09T21:03:59.120Z,5.22
2018-07-09T21:06:26.900Z,7.64
2018-07-09T21:08:54.660Z,6.10
2018-07-09T21:11:22.461Z,6.10
2018-07-09T21:13:49.523Z,4.36
2018-07-09T21:16:17.484Z,8.90
2018-07-09T21:18:45.151Z,4.52
2018-07-09T21:21:12.919Z,7.66
2018-07-09T21:23:40.709Z,8.40
2018-07-09T21:26:08.473Z,6.36
2018-07-09T21:28:36.391Z,5.20
2018-07-09T21:31:04.042Z,8.88
2018-07-09T21:33:32.466Z,7.94
2018-07-09T21:36:00.226Z,3.26
2018-07-09T21:38:27.258Z,4.64
2018-07-09T21:40:55.075Z,5.08
2018-07-09T21:43:23.522Z,8.70
2018-07-09T21:45:51.330Z,4.32
2018-07-09T21:48:29.778Z,6.42
2018-07-09T21:50:47.288Z,6.22
2018-07-09T21:53:15.192Z,11.68
2018-07-09T21:55:42.948Z,7.58
2018-07-09T21:58:10.744Z,4.36
2018-07-09T22:00:38.540Z,5.10
2018-07-09T22:03:06.337Z,9.56
2018-07-09T22:05:34.176Z,6.22
2018-07-09T22:08:02.617Z,7.76
2018-07-09T22:10:30.450Z,6.96
2018-07-09T22:12:58.279Z,10.26
2018-07-09T22:15:26.091Z,5.02
2018-07-09T22:17:54.796Z,4.60
2018-07-09T22:20:22.606Z,5.18
2018-07-09T22:22:50.453Z,3.82
2018-07-09T22:25:18.249Z,4.80
2018-07-09T22:27:46.017Z,5.40
2018-07-09T22:30:13.853Z,10.76
2018-07-09T22:32:42.112Z,10.20
2018-07-09T22:35:10.373Z,5.12
2018-07-09T22:37:37.926Z,3.84
2018-07-09T22:40:06.280Z,5.14
2018-07-09T22:42:34.516Z,6.30
2018-07-09T22:45:03.398Z,9.04
2018-07-09T22:47:32.461Z,6.78
2018-07-09T22:50:00.762Z,12.70
2018-07-09T22:52:29.076Z,6.22
2018-07-09T22:54:57.415Z,7.62
2018-07-09T22:57:25.672Z,7.12
2018-07-09T22:59:53.956Z,7.60
2018-07-09T23:02:22.260Z,8.98
2018-07-09T23:04:51.569Z,6.60
2018-07-09T23:07:19.865Z,6.22
2018-07-09T23:09:49.051Z,6.26
2018-07-09T23:12:17.299Z,8.08
2018-07-09T23:14:45.592Z,11.58
2018-07-09T23:20:25.371Z,9.82
2018-07-09T23:22:54.632Z,7.98
2018-07-09T23:25:22.448Z,6.90
2018-07-09T23:27:50.210Z,7.70
2018-07-09T23:30:17.978Z,7.50
2018-07-09T23:32:45.838Z,11.80
2018-07-09T23:35:24.443Z,6.74
2018-07-09T23:37:52.270Z,8.70
2018-07-09T23:40:20.026Z,9.94
2018-07-09T23:42:48.132Z,6.76
2018-07-09T23:45:15.912Z,9.58
2018-07-09T23:47:43.721Z,4.74
2018-07-09T23:50:11.547Z,5.92
2018-07-09T23:52:39.319Z,7.90
2018-07-09T23:55:07.120Z,7.94
2018-07-09T23:57:35.373Z,4.62
